sensor_id;sensor_type;location;lat;lon;timestamp;P1;durP1;ratioP1;P2;durP2;ratioP2
23044;SDS011;11690;51.716;23.066;2023-06-14T00:00:49;5.40;;;3.28;;
23044;SDS011;11690;51.716;23.066;2023-06-14T00:03:36;9.52;;;3.53;;
23044;SDS011;11690;51.716;23.066;2023-06-14T00:06:03;14.23;;;4.40;;
23044;SDS011;11690;51.716;23.066;2023-06-14T00:08:31;6.82;;;3.45;;
23044;SDS011;11690;51.716;23.066;2023-06-14T00:10:58;6.85;;;3.78;;
23044;SDS011;11690;51.716;23.066;2023-06-14T00:13:27;5.15;;;3.70;;
23044;SDS011;11690;51.716;23.066;2023-06-14T00:15:54;5.80;;;3.33;;
23044;SDS011;11690;51.716;23.066;2023-06-14T00:18:22;9.00;;;3.70;;
23044;SDS011;11690;51.716;23.066;2023-06-14T00:20:56;5.25;;;3.30;;
23044;SDS011;11690;51.716;23.066;2023-06-14T00:23:23;6.07;;;4.10;;
23044;SDS011;11690;51.716;23.066;2023-06-14T00:25:50;6.93;;;3.88;;
23044;SDS011;11690;51.716;23.066;2023-06-14T00:28:17;4.57;;;3.38;;
23044;SDS011;11690;51.716;23.066;2023-06-14T00:30:45;6.07;;;3.88;;
23044;SDS011;11690;51.716;23.066;2023-06-14T00:33:13;5.93;;;3.90;;
23044;SDS011;11690;51.716;23.066;2023-06-14T00:35:43;10.65;;;4.15;;
23044;SDS011;11690;51.716;23.066;2023-06-14T00:38:10;5.20;;;4.03;;
23044;SDS011;11690;51.716;23.066;2023-06-14T00:40:40;8.43;;;4.32;;
23044;SDS011;11690;51.716;23.066;2023-06-14T00:43:07;9.98;;;4.45;;
23044;SDS011;11690;51.716;23.066;2023-06-14T00:45:35;8.40;;;4.45;;
23044;SDS011;11690;51.716;23.066;2023-06-14T00:48:03;6.00;;;3.80;;
23044;SDS011;11690;51.716;23.066;2023-06-14T00:50:30;7.38;;;4.43;;
23044;SDS011;11690;51.716;23.066;2023-06-14T00:53:00;6.20;;;4.32;;
23044;SDS011;11690;51.716;23.066;2023-06-14T00:55:28;5.82;;;4.22;;
23044;SDS011;11690;51.716;23.066;2023-06-14T00:57:55;7.38;;;3.88;;
23044;SDS011;11690;51.716;23.066;2023-06-14T01:00:23;7.28;;;4.95;;
23044;SDS011;11690;51.716;23.066;2023-06-14T01:02:49;8.60;;;4.72;;
23044;SDS011;11690;51.716;23.066;2023-06-14T01:05:17;10.20;;;5.07;;
23044;SDS011;11690;51.716;23.066;2023-06-14T01:13:21;6.65;;;4.60;;
23044;SDS011;11690;51.716;23.066;2023-06-14T01:15:55;7.88;;;5.10;;
23044;SDS011;11690;51.716;23.066;2023-06-14T01:18:23;6.65;;;4.93;;
23044;SDS011;11690;51.716;23.066;2023-06-14T01:20:53;6.35;;;4.25;;
23044;SDS011;11690;51.716;23.066;2023-06-14T01:23:24;12.27;;;5.55;;
23044;SDS011;11690;51.716;23.066;2023-06-14T01:25:52;6.35;;;4.45;;
23044;SDS011;11690;51.716;23.066;2023-06-14T01:28:20;5.47;;;4.50;;
23044;SDS011;11690;51.716;23.066;2023-06-14T01:30:49;5.90;;;4.07;;
23044;SDS011;11690;51.716;23.066;2023-06-14T01:33:23;8.70;;;4.15;;
23044;SDS011;11690;51.716;23.066;2023-06-14T01:35:52;5.93;;;4.05;;
23044;SDS011;11690;51.716;23.066;2023-06-14T01:38:21;8.48;;;5.13;;
23044;SDS011;11690;51.716;23.066;2023-06-14T01:40:49;7.38;;;4.10;;
23044;SDS011;11690;51.716;23.066;2023-06-14T01:43:17;10.55;;;4.55;;
23044;SDS011;11690;51.716;23.066;2023-06-14T01:45:46;6.82;;;4.28;;
23044;SDS011;11690;51.716;23.066;2023-06-14T01:48:15;6.38;;;4.30;;
23044;SDS011;11690;51.716;23.066;2023-06-14T01:50:42;6.65;;;4.78;;
23044;SDS011;11690;51.716;23.066;2023-06-14T01:53:10;5.10;;;3.90;;
23044;SDS011;11690;51.716;23.066;2023-06-14T01:55:37;7.45;;;4.30;;
23044;SDS011;11690;51.716;23.066;2023-06-14T01:58:07;6.57;;;4.30;;
23044;SDS011;11690;51.716;23.066;2023-06-14T02:00:35;6.15;;;4.13;;
23044;SDS011;11690;51.716;23.066;2023-06-14T02:03:02;6.85;;;4.55;;
23044;SDS011;11690;51.716;23.066;2023-06-14T02:05:31;6.65;;;4.28;;
23044;SDS011;11690;51.716;23.066;2023-06-14T02:07:58;6.22;;;4.55;;
23044;SDS011;11690;51.716;23.066;2023-06-14T02:10:25;6.25;;;3.90;;
23044;SDS011;11690;51.716;23.066;2023-06-14T02:12:54;9.75;;;4.57;;
23044;SDS011;11690;51.716;23.066;2023-06-14T02:15:21;6.22;;;4.03;;
23044;SDS011;11690;51.716;23.066;2023-06-14T02:17:48;6.30;;;4.43;;
23044;SDS011;11690;51.716;23.066;2023-06-14T02:20:16;10.32;;;4.38;;
23044;SDS011;11690;51.716;23.066;2023-06-14T02:22:44;5.22;;;4.25;;
23044;SDS011;11690;51.716;23.066;2023-06-14T02:25:12;7.65;;;4.22;;
23044;SDS011;11690;51.716;23.066;2023-06-14T02:27:40;7.85;;;4.40;;
23044;SDS011;11690;51.716;23.066;2023-06-14T02:30:07;9.02;;;3.80;;
23044;SDS011;11690;51.716;23.066;2023-06-14T02:32:35;9.63;;;4.22;;
23044;SDS011;11690;51.716;23.066;2023-06-14T02:35:04;6.25;;;4.20;;
23044;SDS011;11690;51.716;23.066;2023-06-14T02:37:34;5.93;;;3.50;;
23044;SDS011;11690;51.716;23.066;2023-06-14T02:40:02;7.80;;;4.03;;
23044;SDS011;11690;51.716;23.066;2023-06-14T02:42:30;6.63;;;4.05;;
23044;SDS011;11690;51.716;23.066;2023-06-14T02:44:57;10.75;;;4.53;;
23044;SDS011;11690;51.716;23.066;2023-06-14T02:47:27;6.95;;;4.32;;
23044;SDS011;11690;51.716;23.066;2023-06-14T02:49:54;5.20;;;3.83;;
23044;SDS011;11690;51.716;23.066;2023-06-14T02:52:22;7.28;;;4.47;;
23044;SDS011;11690;51.716;23.066;2023-06-14T02:54:49;6.10;;;3.70;;
23044;SDS011;11690;51.716;23.066;2023-06-14T02:57:16;6.35;;;4.40;;
23044;SDS011;11690;51.716;23.066;2023-06-14T02:59:43;12.63;;;4.57;;
23044;SDS011;11690;51.716;23.066;2023-06-14T03:02:10;9.70;;;4.43;;
23044;SDS011;11690;51.716;23.066;2023-06-14T03:04:38;7.30;;;4.13;;
23044;SDS011;11690;51.716;23.066;2023-06-14T03:07:10;6.32;;;4.40;;
23044;SDS011;11690;51.716;23.066;2023-06-14T03:09:40;7.47;;;4.30;;
23044;SDS011;11690;51.716;23.066;2023-06-14T03:12:10;7.10;;;4.13;;
23044;SDS011;11690;51.716;23.066;2023-06-14T03:14:39;5.75;;;3.97;;
23044;SDS011;11690;51.716;23.066;2023-06-14T03:17:07;7.95;;;3.78;;
23044;SDS011;11690;51.716;23.066;2023-06-14T03:19:38;6.63;;;3.53;;
23044;SDS011;11690;51.716;23.066;2023-06-14T03:22:08;5.57;;;4.10;;
23044;SDS011;11690;51.716;23.066;2023-06-14T03:24:37;7.25;;;4.05;;
23044;SDS011;11690;51.716;23.066;2023-06-14T03:27:09;5.07;;;3.92;;
23044;SDS011;11690;51.716;23.066;2023-06-14T03:29:40;4.82;;;3.80;;
23044;SDS011;11690;51.716;23.066;2023-06-14T03:32:08;7.97;;;3.90;;
23044;SDS011;11690;51.716;23.066;2023-06-14T03:34:44;7.95;;;4.20;;
23044;SDS011;11690;51.716;23.066;2023-06-14T03:37:18;4.88;;;3.85;;
23044;SDS011;11690;51.716;23.066;2023-06-14T03:39:47;9.05;;;3.90;;
23044;SDS011;11690;51.716;23.066;2023-06-14T03:42:19;8.15;;;4.32;;
23044;SDS011;11690;51.716;23.066;2023-06-14T03:44:48;8.27;;;3.75;;
23044;SDS011;11690;51.716;23.066;2023-06-14T03:47:17;6.55;;;3.80;;
23044;SDS011;11690;51.716;23.066;2023-06-14T03:49:44;9.45;;;4.30;;
23044;SDS011;11690;51.716;23.066;2023-06-14T03:52:12;5.00;;;3.65;;
23044;SDS011;11690;51.716;23.066;2023-06-14T03:54:42;6.60;;;3.78;;
23044;SDS011;11690;51.716;23.066;2023-06-14T03:57:14;7.35;;;3.80;;
23044;SDS011;11690;51.716;23.066;2023-06-14T03:59:43;5.72;;;3.90;;
23044;SDS011;11690;51.716;23.066;2023-06-14T04:02:11;6.57;;;4.10;;
23044;SDS011;11690;51.716;23.066;2023-06-14T04:04:39;7.20;;;4.15;;
23044;SDS011;11690;51.716;23.066;2023-06-14T04:07:06;6.82;;;3.88;;
23044;SDS011;11690;51.716;23.066;2023-06-14T04:09:36;4.43;;;3.42;;
23044;SDS011;11690;51.716;23.066;2023-06-14T04:12:03;4.97;;;3.53;;
23044;SDS011;11690;51.716;23.066;2023-06-14T04:14:32;8.02;;;4.32;;
23044;SDS011;11690;51.716;23.066;2023-06-14T04:17:00;6.03;;;3.88;;
23044;SDS011;11690;51.716;23.066;2023-06-14T04:19:28;5.85;;;3.85;;
23044;SDS011;11690;51.716;23.066;2023-06-14T04:21:55;6.90;;;4.07;;
23044;SDS011;11690;51.716;23.066;2023-06-14T04:24:23;8.68;;;4.07;;
23044;SDS011;11690;51.716;23.066;2023-06-14T04:26:55;5.60;;;3.47;;
23044;SDS011;11690;51.716;23.066;2023-06-14T04:29:25;6.40;;;4.05;;
23044;SDS011;11690;51.716;23.066;2023-06-14T04:31:59;6.13;;;4.18;;
23044;SDS011;11690;51.716;23.066;2023-06-14T04:34:28;6.90;;;4.28;;
23044;SDS011;11690;51.716;23.066;2023-06-14T04:37:02;8.52;;;3.42;;
23044;SDS011;11690;51.716;23.066;2023-06-14T04:39:36;5.95;;;3.65;;
23044;SDS011;11690;51.716;23.066;2023-06-14T04:42:04;8.50;;;4.05;;
23044;SDS011;11690;51.716;23.066;2023-06-14T04:44:33;7.30;;;3.90;;
23044;SDS011;11690;51.716;23.066;2023-06-14T04:47:02;5.65;;;3.78;;
23044;SDS011;11690;51.716;23.066;2023-06-14T04:49:31;6.55;;;3.75;;
23044;SDS011;11690;51.716;23.066;2023-06-14T04:51:59;8.27;;;3.55;;
23044;SDS011;11690;51.716;23.066;2023-06-14T04:54:40;7.15;;;4.20;;
23044;SDS011;11690;51.716;23.066;2023-06-14T04:57:15;5.20;;;3.55;;
23044;SDS011;11690;51.716;23.066;2023-06-14T04:59:47;5.38;;;4.43;;
23044;SDS011;11690;51.716;23.066;2023-06-14T05:02:14;5.13;;;3.40;;
23044;SDS011;11690;51.716;23.066;2023-06-14T05:04:42;6.20;;;3.90;;
23044;SDS011;11690;51.716;23.066;2023-06-14T05:07:10;5.82;;;3.92;;
23044;SDS011;11690;51.716;23.066;2023-06-14T05:09:37;5.57;;;3.92;;
23044;SDS011;11690;51.716;23.066;2023-06-14T05:12:05;5.47;;;4.38;;
23044;SDS011;11690;51.716;23.066;2023-06-14T05:14:35;5.10;;;4.00;;
23044;SDS011;11690;51.716;23.066;2023-06-14T05:17:04;4.70;;;3.60;;
23044;SDS011;11690;51.716;23.066;2023-06-14T05:19:31;6.18;;;3.88;;
23044;SDS011;11690;51.716;23.066;2023-06-14T05:21:58;5.22;;;3.67;;
23044;SDS011;11690;51.716;23.066;2023-06-14T05:24:26;5.72;;;4.40;;
23044;SDS011;11690;51.716;23.066;2023-06-14T05:26:53;5.88;;;4.15;;
23044;SDS011;11690;51.716;23.066;2023-06-14T05:29:20;5.50;;;3.72;;
23044;SDS011;11690;51.716;23.066;2023-06-14T05:31:47;10.35;;;4.20;;
23044;SDS011;11690;51.716;23.066;2023-06-14T05:34:15;13.23;;;4.32;;
23044;SDS011;11690;51.716;23.066;2023-06-14T05:36:42;6.65;;;3.97;;
23044;SDS011;11690;51.716;23.066;2023-06-14T05:39:09;5.40;;;3.70;;
23044;SDS011;11690;51.716;23.066;2023-06-14T05:41:37;5.57;;;4.03;;
23044;SDS011;11690;51.716;23.066;2023-06-14T05:44:04;8.63;;;4.35;;
23044;SDS011;11690;51.716;23.066;2023-06-14T05:46:31;6.20;;;3.95;;
23044;SDS011;11690;51.716;23.066;2023-06-14T05:48:59;5.50;;;4.13;;
23044;SDS011;11690;51.716;23.066;2023-06-14T05:51:26;5.07;;;3.72;;
23044;SDS011;11690;51.716;23.066;2023-06-14T05:53:53;6.85;;;4.35;;
23044;SDS011;11690;51.716;23.066;2023-06-14T05:56:21;6.68;;;3.90;;
23044;SDS011;11690;51.716;23.066;2023-06-14T05:58:48;12.38;;;4.97;;
23044;SDS011;11690;51.716;23.066;2023-06-14T06:01:15;8.70;;;4.47;;
23044;SDS011;11690;51.716;23.066;2023-06-14T06:03:43;10.57;;;4.28;;
23044;SDS011;11690;51.716;23.066;2023-06-14T06:06:13;8.40;;;4.55;;
23044;SDS011;11690;51.716;23.066;2023-06-14T06:08:41;7.70;;;4.72;;
23044;SDS011;11690;51.716;23.066;2023-06-14T06:11:08;6.60;;;4.93;;
23044;SDS011;11690;51.716;23.066;2023-06-14T06:13:35;6.03;;;4.10;;
23044;SDS011;11690;51.716;23.066;2023-06-14T06:16:03;6.53;;;4.32;;
23044;SDS011;11690;51.716;23.066;2023-06-14T06:18:30;4.95;;;4.20;;
23044;SDS011;11690;51.716;23.066;2023-06-14T06:20:58;6.15;;;4.47;;
23044;SDS011;11690;51.716;23.066;2023-06-14T06:23:25;5.65;;;4.13;;
23044;SDS011;11690;51.716;23.066;2023-06-14T06:25:52;7.18;;;4.50;;
23044;SDS011;11690;51.716;23.066;2023-06-14T06:28:20;6.60;;;4.50;;
23044;SDS011;11690;51.716;23.066;2023-06-14T06:30:47;8.45;;;4.85;;
23044;SDS011;11690;51.716;23.066;2023-06-14T06:33:14;5.05;;;4.18;;
23044;SDS011;11690;51.716;23.066;2023-06-14T06:35:41;6.38;;;3.90;;
23044;SDS011;11690;51.716;23.066;2023-06-14T06:38:09;5.50;;;4.00;;
23044;SDS011;11690;51.716;23.066;2023-06-14T06:40:36;6.32;;;4.25;;
23044;SDS011;11690;51.716;23.066;2023-06-14T06:43:04;8.88;;;4.07;;
23044;SDS011;11690;51.716;23.066;2023-06-14T06:45:39;6.53;;;4.85;;
23044;SDS011;11690;51.716;23.066;2023-06-14T06:48:07;5.03;;;3.88;;
23044;SDS011;11690;51.716;23.066;2023-06-14T06:50:36;7.05;;;4.10;;
23044;SDS011;11690;51.716;23.066;2023-06-14T06:53:04;6.55;;;4.15;;
23044;SDS011;11690;51.716;23.066;2023-06-14T06:55:31;7.68;;;4.30;;
23044;SDS011;11690;51.716;23.066;2023-06-14T06:57:59;7.90;;;3.78;;
23044;SDS011;11690;51.716;23.066;2023-06-14T07:00:26;5.32;;;3.85;;
23044;SDS011;11690;51.716;23.066;2023-06-14T07:02:54;5.40;;;4.07;;
23044;SDS011;11690;51.716;23.066;2023-06-14T07:05:22;8.13;;;3.45;;
23044;SDS011;11690;51.716;23.066;2023-06-14T07:07:50;5.40;;;3.88;;
23044;SDS011;11690;51.716;23.066;2023-06-14T07:10:17;6.05;;;3.70;;
23044;SDS011;11690;51.716;23.066;2023-06-14T07:12:45;6.40;;;3.80;;
23044;SDS011;11690;51.716;23.066;2023-06-14T07:15:12;5.35;;;3.50;;
23044;SDS011;11690;51.716;23.066;2023-06-14T07:17:40;6.40;;;3.70;;
23044;SDS011;11690;51.716;23.066;2023-06-14T07:20:08;4.32;;;3.35;;
23044;SDS011;11690;51.716;23.066;2023-06-14T07:22:39;6.22;;;3.88;;
23044;SDS011;11690;51.716;23.066;2023-06-14T07:25:10;5.15;;;3.20;;
23044;SDS011;11690;51.716;23.066;2023-06-14T07:27:41;4.28;;;3.50;;
23044;SDS011;11690;51.716;23.066;2023-06-14T07:30:09;4.07;;;2.72;;
23044;SDS011;11690;51.716;23.066;2023-06-14T07:32:37;4.25;;;2.72;;
23044;SDS011;11690;51.716;23.066;2023-06-14T07:35:05;5.90;;;3.50;;
23044;SDS011;11690;51.716;23.066;2023-06-14T07:37:32;3.92;;;2.97;;
23044;SDS011;11690;51.716;23.066;2023-06-14T07:39:59;3.05;;;2.50;;
23044;SDS011;11690;51.716;23.066;2023-06-14T07:42:26;4.60;;;2.85;;
23044;SDS011;11690;51.716;23.066;2023-06-14T07:44:53;5.45;;;2.95;;
23044;SDS011;11690;51.716;23.066;2023-06-14T07:47:21;5.93;;;2.50;;
23044;SDS011;11690;51.716;23.066;2023-06-14T07:49:48;3.00;;;2.50;;
23044;SDS011;11690;51.716;23.066;2023-06-14T07:52:16;5.50;;;2.60;;
23044;SDS011;11690;51.716;23.066;2023-06-14T07:54:43;4.05;;;2.67;;
23044;SDS011;11690;51.716;23.066;2023-06-14T07:57:10;2.92;;;2.58;;
23044;SDS011;11690;51.716;23.066;2023-06-14T07:59:37;4.35;;;2.60;;
23044;SDS011;11690;51.716;23.066;2023-06-14T08:02:04;3.75;;;2.30;;
23044;SDS011;11690;51.716;23.066;2023-06-14T08:04:32;3.33;;;2.05;;
23044;SDS011;11690;51.716;23.066;2023-06-14T08:07:00;3.65;;;2.33;;
23044;SDS011;11690;51.716;23.066;2023-06-14T08:09:27;4.68;;;2.30;;
23044;SDS011;11690;51.716;23.066;2023-06-14T08:11:56;3.95;;;1.90;;
23044;SDS011;11690;51.716;23.066;2023-06-14T08:14:23;3.63;;;2.60;;
23044;SDS011;11690;51.716;23.066;2023-06-14T08:16:50;3.13;;;2.33;;
23044;SDS011;11690;51.716;23.066;2023-06-14T08:19:17;5.70;;;2.88;;
23044;SDS011;11690;51.716;23.066;2023-06-14T08:21:45;4.35;;;2.60;;
23044;SDS011;11690;51.716;23.066;2023-06-14T08:24:12;2.85;;;2.35;;
23044;SDS011;11690;51.716;23.066;2023-06-14T08:26:40;4.13;;;2.42;;
23044;SDS011;11690;51.716;23.066;2023-06-14T08:29:08;3.30;;;2.30;;
23044;SDS011;11690;51.716;23.066;2023-06-14T08:31:35;4.88;;;2.47;;
23044;SDS011;11690;51.716;23.066;2023-06-14T08:34:02;4.28;;;2.30;;
23044;SDS011;11690;51.716;23.066;2023-06-14T08:36:33;3.03;;;2.35;;
23044;SDS011;11690;51.716;23.066;2023-06-14T08:39:00;4.97;;;3.10;;
23044;SDS011;11690;51.716;23.066;2023-06-14T08:41:27;3.72;;;2.60;;
23044;SDS011;11690;51.716;23.066;2023-06-14T08:43:56;3.38;;;2.70;;
23044;SDS011;11690;51.716;23.066;2023-06-14T08:46:24;4.82;;;2.67;;
23044;SDS011;11690;51.716;23.066;2023-06-14T08:48:55;3.25;;;2.30;;
23044;SDS011;11690;51.716;23.066;2023-06-14T08:51:25;4.43;;;2.75;;
23044;SDS011;11690;51.716;23.066;2023-06-14T08:54:00;3.15;;;2.50;;
23044;SDS011;11690;51.716;23.066;2023-06-14T08:56:28;4.72;;;2.50;;
23044;SDS011;11690;51.716;23.066;2023-06-14T08:58:57;3.55;;;2.72;;
23044;SDS011;11690;51.716;23.066;2023-06-14T09:01:28;3.38;;;2.80;;
23044;SDS011;11690;51.716;23.066;2023-06-14T09:03:55;11.18;;;2.90;;
23044;SDS011;11690;51.716;23.066;2023-06-14T09:06:25;3.85;;;2.65;;
23044;SDS011;11690;51.716;23.066;2023-06-14T09:08:54;3.10;;;2.40;;
23044;SDS011;11690;51.716;23.066;2023-06-14T09:11:24;8.27;;;2.60;;
23044;SDS011;11690;51.716;23.066;2023-06-14T09:13:52;6.13;;;2.95;;
23044;SDS011;11690;51.716;23.066;2023-06-14T09:16:20;6.22;;;2.90;;
23044;SDS011;11690;51.716;23.066;2023-06-14T09:18:47;4.15;;;2.95;;
23044;SDS011;11690;51.716;23.066;2023-06-14T09:21:16;4.93;;;3.15;;
23044;SDS011;11690;51.716;23.066;2023-06-14T09:23:44;5.57;;;3.22;;
23044;SDS011;11690;51.716;23.066;2023-06-14T09:26:16;4.88;;;3.53;;
23044;SDS011;11690;51.716;23.066;2023-06-14T09:28:47;4.10;;;3.28;;
23044;SDS011;11690;51.716;23.066;2023-06-14T09:31:16;7.50;;;3.80;;
23044;SDS011;11690;51.716;23.066;2023-06-14T09:33:45;4.13;;;3.17;;
23044;SDS011;11690;51.716;23.066;2023-06-14T09:36:17;3.50;;;2.75;;
23044;SDS011;11690;51.716;23.066;2023-06-14T09:38:53;4.80;;;2.92;;
23044;SDS011;11690;51.716;23.066;2023-06-14T09:41:30;7.28;;;3.25;;
23044;SDS011;11690;51.716;23.066;2023-06-14T09:44:05;6.05;;;3.47;;
23044;SDS011;11690;51.716;23.066;2023-06-14T09:46:40;5.40;;;3.63;;
23044;SDS011;11690;51.716;23.066;2023-06-14T09:49:08;4.47;;;3.50;;
23044;SDS011;11690;51.716;23.066;2023-06-14T09:51:36;3.67;;;3.00;;
23044;SDS011;11690;51.716;23.066;2023-06-14T09:54:12;4.93;;;2.92;;
23044;SDS011;11690;51.716;23.066;2023-06-14T09:56:46;9.18;;;3.75;;
23044;SDS011;11690;51.716;23.066;2023-06-14T09:59:14;5.07;;;3.53;;
23044;SDS011;11690;51.716;23.066;2023-06-14T10:01:43;4.90;;;3.38;;
23044;SDS011;11690;51.716;23.066;2023-06-14T10:04:10;4.22;;;3.30;;
23044;SDS011;11690;51.716;23.066;2023-06-14T10:06:42;3.90;;;3.22;;
23044;SDS011;11690;51.716;23.066;2023-06-14T10:09:10;4.63;;;3.35;;
23044;SDS011;11690;51.716;23.066;2023-06-14T10:11:38;3.88;;;3.08;;
23044;SDS011;11690;51.716;23.066;2023-06-14T10:14:11;5.07;;;3.22;;
23044;SDS011;11690;51.716;23.066;2023-06-14T10:19:27;3.50;;;2.90;;
23044;SDS011;11690;51.716;23.066;2023-06-14T10:22:02;4.13;;;2.83;;
23044;SDS011;11690;51.716;23.066;2023-06-14T10:24:35;5.82;;;3.28;;
23044;SDS011;11690;51.716;23.066;2023-06-14T10:27:07;4.35;;;3.15;;
23044;SDS011;11690;51.716;23.066;2023-06-14T10:32:21;5.22;;;3.47;;
23044;SDS011;11690;51.716;23.066;2023-06-14T10:34:53;6.13;;;3.38;;
23044;SDS011;11690;51.716;23.066;2023-06-14T10:37:27;5.85;;;3.75;;
23044;SDS011;11690;51.716;23.066;2023-06-14T10:39:54;5.03;;;3.40;;
23044;SDS011;11690;51.716;23.066;2023-06-14T10:42:21;6.10;;;3.08;;
23044;SDS011;11690;51.716;23.066;2023-06-14T10:44:49;4.68;;;3.00;;
23044;SDS011;11690;51.716;23.066;2023-06-14T10:49:52;4.00;;;3.17;;
23044;SDS011;11690;51.716;23.066;2023-06-14T10:52:22;3.53;;;2.60;;
23044;SDS011;11690;51.716;23.066;2023-06-14T10:55:06;3.70;;;2.88;;
23044;SDS011;11690;51.716;23.066;2023-06-14T10:57:37;4.75;;;2.90;;
23044;SDS011;11690;51.716;23.066;2023-06-14T11:00:19;3.70;;;2.63;;
23044;SDS011;11690;51.716;23.066;2023-06-14T11:05:58;7.13;;;3.08;;
23044;SDS011;11690;51.716;23.066;2023-06-14T11:10:58;4.28;;;3.20;;
23044;SDS011;11690;51.716;23.066;2023-06-14T11:13:26;4.43;;;3.10;;
23044;SDS011;11690;51.716;23.066;2023-06-14T11:15:57;4.65;;;3.22;;
23044;SDS011;11690;51.716;23.066;2023-06-14T11:18:25;4.53;;;3.10;;
23044;SDS011;11690;51.716;23.066;2023-06-14T11:20:54;7.00;;;2.90;;
23044;SDS011;11690;51.716;23.066;2023-06-14T11:23:22;3.22;;;2.45;;
23044;SDS011;11690;51.716;23.066;2023-06-14T11:25:50;5.22;;;3.22;;
23044;SDS011;11690;51.716;23.066;2023-06-14T11:28:18;5.40;;;3.10;;
23044;SDS011;11690;51.716;23.066;2023-06-14T11:30:48;4.97;;;3.55;;
23044;SDS011;11690;51.716;23.066;2023-06-14T11:33:17;5.53;;;3.25;;
23044;SDS011;11690;51.716;23.066;2023-06-14T11:35:47;7.07;;;3.35;;
23044;SDS011;11690;51.716;23.066;2023-06-14T11:38:14;4.90;;;3.22;;
23044;SDS011;11690;51.716;23.066;2023-06-14T11:40:41;4.18;;;3.03;;
23044;SDS011;11690;51.716;23.066;2023-06-14T11:43:09;4.55;;;3.25;;
23044;SDS011;11690;51.716;23.066;2023-06-14T11:45:36;4.60;;;3.40;;
23044;SDS011;11690;51.716;23.066;2023-06-14T11:48:04;4.03;;;2.95;;
23044;SDS011;11690;51.716;23.066;2023-06-14T11:50:31;4.72;;;3.25;;
23044;SDS011;11690;51.716;23.066;2023-06-14T11:53:00;9.45;;;3.15;;
23044;SDS011;11690;51.716;23.066;2023-06-14T11:55:39;5.40;;;3.60;;
23044;SDS011;11690;51.716;23.066;2023-06-14T11:58:07;4.68;;;3.58;;
23044;SDS011;11690;51.716;23.066;2023-06-14T12:00:35;3.38;;;2.70;;
23044;SDS011;11690;51.716;23.066;2023-06-14T12:03:03;8.15;;;3.08;;
23044;SDS011;11690;51.716;23.066;2023-06-14T12:05:32;4.75;;;3.58;;
23044;SDS011;11690;51.716;23.066;2023-06-14T12:08:02;4.82;;;3.45;;
23044;SDS011;11690;51.716;23.066;2023-06-14T12:10:30;5.78;;;3.30;;
23044;SDS011;11690;51.716;23.066;2023-06-14T12:13:07;6.30;;;2.90;;
23044;SDS011;11690;51.716;23.066;2023-06-14T12:15:34;5.82;;;3.70;;
23044;SDS011;11690;51.716;23.066;2023-06-14T12:18:05;6.55;;;3.90;;
23044;SDS011;11690;51.716;23.066;2023-06-14T12:20:33;3.95;;;3.13;;
23044;SDS011;11690;51.716;23.066;2023-06-14T12:23:02;3.95;;;3.20;;
23044;SDS011;11690;51.716;23.066;2023-06-14T12:25:31;4.93;;;3.50;;
23044;SDS011;11690;51.716;23.066;2023-06-14T12:28:04;4.75;;;3.05;;
23044;SDS011;11690;51.716;23.066;2023-06-14T12:30:33;7.00;;;4.00;;
23044;SDS011;11690;51.716;23.066;2023-06-14T12:33:01;3.80;;;2.90;;
23044;SDS011;11690;51.716;23.066;2023-06-14T12:35:29;4.50;;;3.60;;
23044;SDS011;11690;51.716;23.066;2023-06-14T12:37:56;4.63;;;3.63;;
23044;SDS011;11690;51.716;23.066;2023-06-14T12:40:23;3.70;;;3.22;;
23044;SDS011;11690;51.716;23.066;2023-06-14T12:42:51;5.78;;;3.80;;
23044;SDS011;11690;51.716;23.066;2023-06-14T12:45:18;5.70;;;3.75;;
23044;SDS011;11690;51.716;23.066;2023-06-14T12:47:45;11.02;;;3.13;;
23044;SDS011;11690;51.716;23.066;2023-06-14T12:50:13;5.55;;;3.50;;
23044;SDS011;11690;51.716;23.066;2023-06-14T12:52:41;13.63;;;3.70;;
23044;SDS011;11690;51.716;23.066;2023-06-14T12:55:08;9.00;;;4.70;;
23044;SDS011;11690;51.716;23.066;2023-06-14T12:57:35;7.50;;;3.40;;
23044;SDS011;11690;51.716;23.066;2023-06-14T13:00:04;3.75;;;2.97;;
23044;SDS011;11690;51.716;23.066;2023-06-14T13:02:32;5.10;;;3.00;;
23044;SDS011;11690;51.716;23.066;2023-06-14T13:04:59;5.80;;;3.45;;
23044;SDS011;11690;51.716;23.066;2023-06-14T13:07:27;4.95;;;3.10;;
23044;SDS011;11690;51.716;23.066;2023-06-14T13:09:54;6.78;;;2.95;;
23044;SDS011;11690;51.716;23.066;2023-06-14T13:12:21;6.05;;;3.42;;
23044;SDS011;11690;51.716;23.066;2023-06-14T13:14:48;4.38;;;3.00;;
23044;SDS011;11690;51.716;23.066;2023-06-14T13:17:16;5.47;;;3.28;;
23044;SDS011;11690;51.716;23.066;2023-06-14T13:19:43;5.00;;;3.33;;
23044;SDS011;11690;51.716;23.066;2023-06-14T13:22:10;4.90;;;3.08;;
23044;SDS011;11690;51.716;23.066;2023-06-14T13:24:37;4.85;;;3.15;;
23044;SDS011;11690;51.716;23.066;2023-06-14T13:27:05;4.40;;;3.13;;
23044;SDS011;11690;51.716;23.066;2023-06-14T13:29:32;5.13;;;3.30;;
23044;SDS011;11690;51.716;23.066;2023-06-14T13:32:03;5.57;;;3.67;;
23044;SDS011;11690;51.716;23.066;2023-06-14T13:34:30;4.43;;;2.80;;
23044;SDS011;11690;51.716;23.066;2023-06-14T13:36:58;4.78;;;3.28;;
23044;SDS011;11690;51.716;23.066;2023-06-14T13:39:27;4.30;;;3.08;;
23044;SDS011;11690;51.716;23.066;2023-06-14T13:41:55;5.65;;;3.33;;
23044;SDS011;11690;51.716;23.066;2023-06-14T13:44:22;7.97;;;2.90;;
23044;SDS011;11690;51.716;23.066;2023-06-14T13:46:49;4.13;;;2.97;;
23044;SDS011;11690;51.716;23.066;2023-06-14T13:49:16;4.60;;;2.70;;
23044;SDS011;11690;51.716;23.066;2023-06-14T13:51:44;4.68;;;2.97;;
23044;SDS011;11690;51.716;23.066;2023-06-14T13:54:12;4.65;;;3.05;;
23044;SDS011;11690;51.716;23.066;2023-06-14T13:56:39;4.88;;;2.90;;
23044;SDS011;11690;51.716;23.066;2023-06-14T13:59:06;4.20;;;2.90;;
23044;SDS011;11690;51.716;23.066;2023-06-14T14:01:34;6.10;;;2.78;;
23044;SDS011;11690;51.716;23.066;2023-06-14T14:04:01;4.45;;;2.92;;
23044;SDS011;11690;51.716;23.066;2023-06-14T14:06:29;3.38;;;2.40;;
23044;SDS011;11690;51.716;23.066;2023-06-14T14:08:56;4.30;;;2.55;;
23044;SDS011;11690;51.716;23.066;2023-06-14T14:11:23;3.33;;;2.65;;
23044;SDS011;11690;51.716;23.066;2023-06-14T14:13:50;4.90;;;2.72;;
23044;SDS011;11690;51.716;23.066;2023-06-14T14:16:18;5.85;;;2.85;;
23044;SDS011;11690;51.716;23.066;2023-06-14T14:18:46;7.07;;;2.47;;
23044;SDS011;11690;51.716;23.066;2023-06-14T14:21:13;3.60;;;2.88;;
23044;SDS011;11690;51.716;23.066;2023-06-14T14:23:41;3.95;;;2.72;;
23044;SDS011;11690;51.716;23.066;2023-06-14T14:26:08;5.18;;;2.95;;
23044;SDS011;11690;51.716;23.066;2023-06-14T14:28:35;3.65;;;2.70;;
23044;SDS011;11690;51.716;23.066;2023-06-14T14:31:02;3.45;;;2.40;;
23044;SDS011;11690;51.716;23.066;2023-06-14T14:33:29;7.55;;;2.63;;
23044;SDS011;11690;51.716;23.066;2023-06-14T14:35:56;5.18;;;2.95;;
23044;SDS011;11690;51.716;23.066;2023-06-14T14:38:23;6.93;;;2.80;;
23044;SDS011;11690;51.716;23.066;2023-06-14T14:40:51;3.55;;;2.30;;
23044;SDS011;11690;51.716;23.066;2023-06-14T14:43:18;5.25;;;2.38;;
23044;SDS011;11690;51.716;23.066;2023-06-14T14:45:45;3.67;;;2.33;;
23044;SDS011;11690;51.716;23.066;2023-06-14T14:48:12;4.93;;;2.70;;
23044;SDS011;11690;51.716;23.066;2023-06-14T14:50:39;5.18;;;2.53;;
23044;SDS011;11690;51.716;23.066;2023-06-14T14:53:06;3.97;;;2.42;;
23044;SDS011;11690;51.716;23.066;2023-06-14T14:55:34;3.65;;;2.42;;
23044;SDS011;11690;51.716;23.066;2023-06-14T14:58:02;3.10;;;2.40;;
23044;SDS011;11690;51.716;23.066;2023-06-14T15:00:30;4.00;;;2.50;;